• Join FlightAware (Why Join?)
  • Login
  • US Flag 
10:41PM EST


 

Airport Tracker/Info


-or-


 

Live Flight TrackerFlight Track Log ✈ EEA2755 ✈ 04-Mar-2014 ✈ ZSLG / LYG - ZYTX / SHE

Flight Track Log - Related Links

Times and Time Zones

All times are in EST time to prevent confusion due to time zone crossing. See the EEA2755 flight status page for this flight to view local times or setup timezone preferences in your user account.

Time Position Orientation Groundspeed Altitude Reporting Facility
EST Latitude Longitude Course Direction KTS MPH feet Rate Location/Type
10:30PM 35.1355 119.2067 26° Northeast  Level Estimated
10:31PM 35.2185 119.2562 26° Northeast  Level Estimated
10:32PM 35.3014 119.3057 26° Northeast  Level Estimated
10:33PM 35.3844 119.3554 26° Northeast  Level Estimated
10:34PM 35.4673 119.4051 26° Northeast  Level Estimated
10:35PM 35.5502 119.4550 26° Northeast  Level Estimated
10:36PM 35.6331 119.5050 26° Northeast  Level Estimated
10:37PM 35.7159 119.5550 26° Northeast  Level Estimated
10:38PM 35.7987 119.6052 26° Northeast  Level Estimated
10:39PM 35.8815 119.6555 26° Northeast  Level Estimated
10:40PM 35.9643 119.7058 26° Northeast  Level Estimated
10:41PM 36.0471 119.7563 26° Northeast  Level Estimated
10:42PM 36.1298 119.8069 26° Northeast  Level Estimated
10:43PM 36.2126 119.8576 26° Northeast  Level Estimated
10:44PM 36.2953 119.9084 26° Northeast  Level Estimated
10:45PM 36.3779 119.9593 26° Northeast  Level Estimated
10:46PM 36.4606 120.0104 26° Northeast  Level Estimated
10:47PM 36.5433 120.0615 26° Northeast  Level Estimated
10:48PM 36.6259 120.1127 26° Northeast  Level Estimated
10:49PM 36.7085 120.1641 26° Northeast  Level Estimated
10:50PM 36.7910 120.2155 27° Northeast  Level Estimated
10:51PM 36.8736 120.2671 27° Northeast  Level Estimated
10:52PM 36.9561 120.3188 27° Northeast  Level Estimated
10:53PM 37.0386 120.3706 27° Northeast  Level Estimated
10:54PM 37.1211 120.4225 27° Northeast  Level Estimated
10:55PM 37.2035 120.4745 27° Northeast  Level Estimated
10:56PM 37.2860 120.5266 27° Northeast  Level Estimated
10:57PM 37.3684 120.5789 27° Northeast  Level Estimated
10:58PM 37.4508 120.6313 27° Northeast  Level Estimated
10:59PM 37.5331 120.6837 27° Northeast  Level Estimated
11:00PM 37.6155 120.7363 27° Northeast  Level Estimated
11:01PM 37.6978 120.7890 27° Northeast  Level Estimated
11:02PM 37.7801 120.8419 27° Northeast  Level Estimated
11:03PM 37.8624 120.8948 27° Northeast  Level Estimated
11:04PM 37.9446 120.9479 27° Northeast  Level Estimated
11:05PM 38.0269 121.0011 27° Northeast  Level Estimated
11:06PM 38.1091 121.0544 27° Northeast  Level Estimated
11:07PM 38.1912 121.1078 27° Northeast  Level Estimated
11:08PM 38.2734 121.1613 27° Northeast  Level Estimated
11:09PM 38.3555 121.2150 27° Northeast  Level Estimated
11:10PM 38.4376 121.2688 27° Northeast  Level Estimated
11:11PM 38.5197 121.3227 27° Northeast  Level Estimated
11:12PM 38.6018 121.3767 27° Northeast  Level Estimated
11:13PM 38.6838 121.4309 27° Northeast  Level Estimated
11:14PM 38.7658 121.4852 27° Northeast  Level Estimated
11:15PM 38.8478 121.5396 27° Northeast  Level Estimated
11:16PM 38.9297 121.5941 27° Northeast  Level Estimated
11:17PM 39.0117 121.6488 27° Northeast  Level Estimated
11:18PM 39.0936 121.7036 27° Northeast  Level Estimated
11:19PM 39.1754 121.7585 27° Northeast  Level Estimated
11:20PM 39.2573 121.8135 28° Northeast  Level Estimated
11:21PM 39.3391 121.8687 28° Northeast  Level Estimated
11:22PM 39.4209 121.9240 28° Northeast  Level Estimated
11:23PM 39.5027 121.9794 28° Northeast  Level Estimated
11:24PM 39.5844 122.0350 28° Northeast  Level Estimated
11:25PM 39.6662 122.0907 28° Northeast  Level Estimated
11:26PM 39.7478 122.1465 28° Northeast  Level Estimated
11:27PM 39.8295 122.2024 28° Northeast  Level Estimated
11:28PM 39.9112 122.2585 28° Northeast  Level Estimated
11:29PM 39.9928 122.3147 28° Northeast  Level Estimated
11:30PM 40.0744 122.3711 28° Northeast  Level Estimated
11:31PM 40.1559 122.4276 28° Northeast  Level Estimated
11:32PM 40.2374 122.4842 28° Northeast  Level Estimated
11:33PM 40.3190 122.5410 28° Northeast  Level Estimated
11:34PM 40.4004 122.5979 28° Northeast  Level Estimated
11:35PM 40.4819 122.6549 28° Northeast  Level Estimated
11:36PM 40.5633 122.7121 28° Northeast  Level Estimated
11:37PM 40.6447 122.7694 28° Northeast  Level Estimated
11:38PM 40.7261 122.8269 28° Northeast  Level Estimated
11:39PM 40.8074 122.8845 28° Northeast  Level Estimated
11:40PM 40.8887 122.9422 28° Northeast  Level Estimated
11:41PM 40.9700 123.0001 28° Northeast  Level Estimated
11:42PM 41.0512 123.0581 28° Northeast  Level Estimated
11:43PM 41.1324 123.1162 28° Northeast  Level Estimated
11:44PM 41.2136 123.1746 28° Northeast  Level Estimated
11:45PM 41.2948 123.2330 28° Northeast  Level Estimated
11:46PM 41.3759 123.2916 28° Northeast  Level Estimated
11:47PM 41.4570 123.3504 28° Northeast  Level Estimated